Time;durP1;ratioP1;P1;durP2;ratioP2;P2;SDS_P1;SDS_P2;PMS_P1;PMS_P2;Temp;Humidity;BMP_temperature;BMP_pressure;BME280_temperature;BME280_humidity;BME280_pressure;Samples;Min_cycle;Max_cycle;Signal;HPM_P1;HPM_P2
2022/04/30 00:00:08;;;;;;;;;14.50;14.50;;;;;16.73;62.09;101246.81;146606;633;45020;-75
2022/04/30 00:03:04;;;;;;;;;16.25;14.75;;;;;16.69;62.50;101247.53;146608;699;45017;-69
2022/04/30 00:05:56;;;;;;;;;17.25;15.75;;;;;16.60;63.00;101253.38;146611;565;45020;-70
2022/04/30 00:08:48;;;;;;;;;18.50;16.75;;;;;16.52;62.17;101246.06;146606;587;47012;-70
2022/04/30 00:11:40;;;;;;;;;20.75;19.00;;;;;16.48;62.52;101229.38;146606;611;47010;-70
2022/04/30 00:14:32;;;;;;;;;15.50;13.00;;;;;16.51;62.72;101232.09;146606;593;46029;-68
2022/04/30 00:17:25;;;;;;;;;19.50;17.75;;;;;16.53;63.38;101243.50;146611;575;46010;-68
2022/04/30 00:20:18;;;;;;;;;17.50;17.00;;;;;16.45;63.89;101244.97;146605;601;46016;-69
2022/04/30 00:23:19;;;;;;;;;18.50;15.00;;;;;16.40;63.12;101239.56;146607;567;47010;-70
2022/04/30 00:26:11;;;;;;;;;18.25;15.75;;;;;16.40;62.61;101246.53;146608;659;46014;-69
2022/04/30 00:29:03;;;;;;;;;18.25;16.75;;;;;16.40;62.89;101250.03;146608;570;46010;-70
2022/04/30 00:31:55;;;;;;;;;16.50;16.00;;;;;16.42;64.06;101251.78;146609;569;45017;-69
2022/04/30 00:34:48;;;;;;;;;18.75;16.25;;;;;16.35;63.78;101243.75;146606;583;46020;-69
2022/04/30 00:37:39;;;;;;;;;18.50;17.50;;;;;16.30;63.47;101252.28;146604;618;46012;-69
2022/04/30 00:40:31;;;;;;;;;13.75;13.75;;;;;16.25;63.15;101248.59;146607;667;46021;-69
2022/04/30 00:43:23;;;;;;;;;16.75;14.25;;;;;16.25;62.89;101256.44;146606;619;46917;-68
2022/04/30 00:46:19;;;;;;;;;20.75;16.75;;;;;16.30;62.98;101254.88;146607;570;46021;-72
2022/04/30 00:49:11;;;;;;;;;16.25;16.00;;;;;16.34;63.03;101259.38;146609;595;46016;-70
2022/04/30 00:52:06;;;;;;;;;16.75;16.25;;;;;16.36;62.95;101262.97;146608;570;47010;-71
2022/04/30 00:55:03;;;;;;;;;19.75;16.75;;;;;16.37;62.80;101269.97;146604;582;46016;-72
2022/04/30 00:57:58;;;;;;;;;19.00;16.25;;;;;16.35;62.95;101269.00;146610;614;46010;-71
2022/04/30 01:00:54;;;;;;;;;20.50;16.75;;;;;16.32;62.78;101272.44;146607;570;46917;-71
2022/04/30 01:03:46;;;;;;;;;16.00;16.00;;;;;16.30;63.36;101270.59;146609;608;46010;-71
2022/04/30 01:07:10;;;;;;;;;18.00;16.50;;;;;16.26;63.34;101269.59;146606;655;47012;-70
2022/04/30 01:10:03;;;;;;;;;16.25;15.25;;;;;16.24;63.32;101275.59;146610;603;46010;-72
2022/04/30 01:12:55;;;;;;;;;17.75;16.75;;;;;16.24;63.69;101272.97;146609;588;45016;-71
2022/04/30 01:15:48;;;;;;;;;16.00;15.00;;;;;16.27;62.99;101276.59;146610;585;46010;-72
2022/04/30 01:18:40;;;;;;;;;16.00;15.75;;;;;16.33;63.32;101279.44;146603;617;46016;-72
2022/04/30 01:21:35;;;;;;;;;16.50;16.00;;;;;16.32;63.30;101276.75;146607;602;46020;-73
2022/04/30 01:24:29;;;;;;;;;20.00;14.25;;;;;16.32;63.59;101272.44;146599;588;49012;-72
2022/04/30 01:27:23;;;;;;;;;14.25;12.75;;;;;16.30;63.68;101275.81;146610;565;47010;-70
2022/04/30 01:30:16;;;;;;;;;16.25;14.00;;;;;16.29;63.47;101276.63;146607;644;46016;-70
2022/04/30 01:39:29;;;;;;;;;14.00;14.00;;;;;16.34;63.41;101273.34;146608;570;46021;-73
2022/04/30 01:42:21;;;;;;;;;17.00;16.25;;;;;16.37;63.45;101281.31;146605;601;46035;-71
2022/04/30 01:45:14;;;;;;;;;18.75;17.25;;;;;16.39;63.71;101271.81;146610;566;45021;-75
2022/04/30 01:48:12;;;;;;;;;15.50;14.50;;;;;16.43;62.76;101279.78;146608;564;46012;-73
2022/04/30 01:51:04;;;;;;;;;15.50;14.75;;;;;16.49;63.16;101274.75;146609;603;46010;-75
2022/04/30 01:53:56;;;;;;;;;20.00;16.00;;;;;16.55;63.60;101268.00;146607;579;45017;-70
2022/04/30 01:56:48;;;;;;;;;14.75;14.75;;;;;16.57;62.85;101266.34;146607;569;46020;-71
2022/04/30 01:59:40;;;;;;;;;14.50;13.50;;;;;16.63;63.32;101266.56;146604;683;47012;-71
2022/04/30 02:02:36;;;;;;;;;18.00;17.00;;;;;16.68;63.81;101271.06;146607;608;46020;-72
2022/04/30 02:05:28;;;;;;;;;19.50;16.50;;;;;16.68;63.65;101263.22;146607;597;46015;-72
2022/04/30 02:08:21;;;;;;;;;14.75;14.50;;;;;16.66;63.33;101260.53;146610;576;46020;-71
2022/04/30 02:11:13;;;;;;;;;17.50;15.00;;;;;16.66;63.71;101260.53;146607;591;46016;-71
2022/04/30 02:14:08;;;;;;;;;16.25;16.00;;;;;16.67;63.22;101261.44;146609;589;46029;-72
2022/04/30 02:17:01;;;;;;;;;17.75;16.25;;;;;16.68;63.24;101264.09;146607;577;46016;-72
2022/04/30 02:23:09;;;;;;;;;19.75;17.50;;;;;16.66;64.20;101260.53;146607;571;46013;-71
2022/04/30 02:26:04;;;;;;;;;20.50;17.50;;;;;16.68;63.75;101261.47;146609;672;46020;-70
2022/04/30 02:29:01;;;;;;;;;14.50;14.00;;;;;16.69;64.25;101255.38;146606;574;46016;-70
2022/04/30 02:31:53;;;;;;;;;18.00;16.75;;;;;16.69;63.83;101268.47;146609;718;46010;-71
2022/04/30 02:34:45;;;;;;;;;20.00;17.75;;;;;16.69;63.70;101255.38;146601;610;47012;-71
2022/04/30 02:37:38;;;;;;;;;18.00;17.50;;;;;16.73;63.71;101254.69;146609;589;46010;-71
2022/04/30 02:40:33;;;;;;;;;21.00;19.25;;;;;16.76;63.16;101259.16;146608;600;46012;-71
2022/04/30 02:43:28;;;;;;;;;16.00;15.50;;;;;16.79;63.44;101261.88;146607;650;46020;-67
2022/04/30 02:46:20;;;;;;;;;18.50;14.50;;;;;16.80;63.35;101258.44;146605;564;46012;-67
2022/04/30 02:49:12;;;;;;;;;16.00;14.50;;;;;16.81;63.49;101249.72;146610;614;46020;-67
2022/04/30 02:52:04;;;;;;;;;16.00;15.00;;;;;16.83;63.52;101255.91;146609;574;46017;-67
2022/04/30 02:54:57;;;;;;;;;16.00;14.50;;;;;16.83;63.84;101248.06;146609;573;45020;-68
2022/04/30 03:01:01;;;;;;;;;18.25;16.25;;;;;15.83;64.04;101084.94;146606;579;46020;-67
2022/04/30 03:03:54;;;;;;;;;15.25;14.00;;;;;16.67;64.74;101246.63;146609;614;46012;-68
2022/04/30 03:06:46;;;;;;;;;18.75;17.00;;;;;16.63;64.30;101245.62;146609;613;46020;-67
2022/04/30 03:09:41;;;;;;;;;14.25;14.25;;;;;16.62;64.12;101251.66;146603;593;46016;-70
2022/04/30 03:12:34;;;;;;;;;16.00;15.75;;;;;16.63;63.76;101248.25;146608;580;46020;-70
2022/04/30 03:15:29;;;;;;;;;17.75;14.00;;;;;16.68;64.66;101252.75;146605;575;46016;-69
2022/04/30 03:21:42;;;;;;;;;16.50;16.50;;;;;16.58;64.17;101260.28;146606;578;46014;-70
2022/04/30 03:24:34;;;;;;;;;14.75;14.00;;;;;16.58;64.10;101257.66;146607;637;46020;-69
2022/04/30 03:27:26;;;;;;;;;18.75;16.75;;;;;16.61;63.93;101265.62;146604;635;46037;-72
2022/04/30 03:30:19;;;;;;;;;17.25;12.50;;;;;16.65;63.60;101266.59;146607;604;46029;-69
2022/04/30 03:33:11;;;;;;;;;18.75;16.00;;;;;16.68;63.71;101269.34;146607;579;46012;-70
2022/04/30 03:36:03;;;;;;;;;12.75;11.50;;;;;16.68;64.51;101257.97;146608;598;46020;-72
2022/04/30 03:38:56;;;;;;;;;16.00;15.25;;;;;16.63;64.39;101269.19;146606;569;46016;-72
2022/04/30 03:41:48;;;;;;;;;16.00;12.75;;;;;16.60;64.04;101268.16;146608;607;46020;-69
2022/04/30 03:44:40;;;;;;;;;16.25;15.50;;;;;16.62;64.16;101263.87;146610;596;46014;-69
2022/04/30 03:47:32;;;;;;;;;13.25;12.00;;;;;16.63;64.13;101257.78;146609;641;46027;-70
2022/04/30 03:50:24;;;;;;;;;16.50;13.75;;;;;16.67;64.13;101266.69;146605;576;46017;-69
2022/04/30 03:53:16;;;;;;;;;13.00;13.00;;;;;16.69;65.01;101264.97;146609;578;46020;-68
2022/04/30 03:56:08;;;;;;;;;16.50;15.25;;;;;16.64;66.04;101264.84;146608;579;46012;-69
2022/04/30 03:59:01;;;;;;;;;18.75;17.75;;;;;16.56;65.71;101266.28;146607;585;46031;-71
2022/04/30 04:01:53;;;;;;;;;22.50;18.50;;;;;16.50;65.21;101264.31;146606;586;46012;-70
2022/04/30 04:04:46;;;;;;;;;18.00;15.25;;;;;16.48;65.29;101265.09;146606;595;46020;-71
2022/04/30 04:07:38;;;;;;;;;17.25;15.50;;;;;16.45;65.87;101268.53;146607;579;46014;-72
2022/04/30 04:10:31;;;;;;;;;18.25;16.00;;;;;16.41;67.33;101266.63;146609;614;46010;-71
2022/04/30 04:19:42;;;;;;;;;16.75;15.00;;;;;16.44;65.76;101269.34;146605;564;46018;-72
2022/04/30 04:22:35;;;;;;;;;16.00;15.00;;;;;16.47;66.16;101261.59;146608;579;47010;-72
2022/04/30 04:28:37;;;;;;;;;18.00;16.25;;;;;16.56;65.63;101274.13;146607;594;46018;-70
2022/04/30 04:31:29;;;;;;;;;15.25;13.75;;;;;16.56;65.44;101267.16;146607;572;46012;-69
2022/04/30 04:34:21;;;;;;;;;17.25;15.50;;;;;16.67;65.58;101264.06;146611;573;46021;-68
2022/04/30 04:37:13;;;;;;;;;16.75;16.25;;;;;16.74;65.28;101266.03;146610;587;46016;-68
2022/04/30 04:40:05;;;;;;;;;15.75;14.50;;;;;16.81;65.61;101266.31;146615;611;46020;-68
2022/04/30 04:42:57;;;;;;;;;17.50;16.00;;;;;16.87;66.02;101265.66;146612;569;46036;-70
2022/04/30 04:45:49;;;;;;;;;21.00;17.50;;;;;16.90;65.94;101272.72;146617;583;46010;-68
2022/04/30 04:48:42;;;;;;;;;19.50;16.50;;;;;16.89;65.74;101271.84;146614;617;46013;-76
2022/04/30 04:51:34;;;;;;;;;20.75;18.75;;;;;16.92;65.56;101271.06;146613;680;46020;-66
2022/04/30 04:54:26;;;;;;;;;25.25;18.50;;;;;16.95;65.11;101277.28;146615;564;46016;-67
2022/04/30 04:57:19;;;;;;;;;23.75;20.50;;;;;17.00;65.07;101277.44;146616;570;46021;-67
2022/04/30 05:00:13;;;;;;;;;23.75;21.50;;;;;17.04;64.84;101275.00;146614;563;46012;-66
2022/04/30 05:03:05;;;;;;;;;19.50;18.50;;;;;17.13;65.10;101287.47;146613;570;46020;-67
2022/04/30 05:05:57;;;;;;;;;21.75;21.25;;;;;17.22;64.58;101286.91;146610;643;46014;-67
2022/04/30 05:08:50;;;;;;;;;22.50;21.75;;;;;17.30;64.53;101288.94;146615;587;46020;-66
2022/04/30 05:11:42;;;;;;;;;22.25;20.75;;;;;17.40;64.27;101286.62;146615;569;46013;-66
2022/04/30 05:14:35;;;;;;;;;20.25;18.50;;;;;17.48;64.45;101295.63;146615;605;47010;-67
2022/04/30 05:17:27;;;;;;;;;26.75;22.50;;;;;17.59;64.39;101293.34;146614;635;46012;-67
2022/04/30 05:20:19;;;;;;;;;22.00;20.75;;;;;17.67;63.58;101289.25;146616;581;46011;-70
2022/04/30 05:23:11;;;;;;;;;23.50;19.75;;;;;17.78;63.72;101295.72;146611;602;46030;-72
2022/04/30 05:26:04;;;;;;;;;24.75;20.75;;;;;17.90;63.80;101301.34;146614;636;46020;-66
2022/04/30 05:28:56;;;;;;;;;22.25;19.00;;;;;17.97;63.69;101305.06;146612;652;46016;-66
2022/04/30 05:31:48;;;;;;;;;23.25;20.00;;;;;18.06;63.04;101293.94;146616;642;46010;-70
2022/04/30 05:34:40;;;;;;;;;23.00;22.25;;;;;18.11;62.49;101295.88;146608;608;46014;-69
2022/04/30 05:37:32;;;;;;;;;26.00;22.00;;;;;18.19;62.52;101303.94;146609;587;46010;-69
2022/04/30 05:40:25;;;;;;;;;22.75;19.25;;;;;18.25;63.01;101293.63;146605;570;46917;-69
2022/04/30 05:43:17;;;;;;;;;25.75;22.25;;;;;18.31;62.78;101301.69;146609;570;46020;-70
2022/04/30 05:46:09;;;;;;;;;25.00;21.00;;;;;18.32;62.38;101290.38;146605;592;47016;-69
2022/04/30 05:49:01;;;;;;;;;23.00;19.50;;;;;18.41;61.72;101300.22;146609;586;46010;-70
2022/04/30 05:51:53;;;;;;;;;20.75;18.75;;;;;18.43;60.65;101299.41;146603;603;47014;-69
2022/04/30 05:54:46;;;;;;;;;24.25;24.00;;;;;17.60;60.71;101154.44;146608;619;46010;-68
2022/04/30 05:57:37;;;;;;;;;25.00;23.25;;;;;18.53;60.82;101307.56;146607;564;45917;-68
2022/04/30 06:00:30;;;;;;;;;26.00;24.75;;;;;18.57;62.02;101301.56;146607;658;46996;-69
2022/04/30 06:03:22;;;;;;;;;23.75;23.50;;;;;18.61;60.46;101295.53;146605;583;46917;-68
2022/04/30 06:06:14;;;;;;;;;29.25;23.25;;;;;18.66;59.80;101302.69;146609;666;46010;-70
2022/04/30 06:09:07;;;;;;;;;23.25;22.25;;;;;18.68;59.48;101294.84;146607;593;46014;-68
2022/04/30 06:11:59;;;;;;;;;26.25;23.50;;;;;18.73;59.65;101303.78;146608;627;46012;-68
2022/04/30 06:14:51;;;;;;;;;32.50;25.50;;;;;18.74;59.76;101307.31;146605;739;46014;-69
2022/04/30 06:17:43;;;;;;;;;23.00;21.50;;;;;18.78;59.78;101311.78;146610;614;45020;-69
2022/04/30 06:20:35;;;;;;;;;26.50;23.25;;;;;18.75;59.06;101306.44;146607;614;46012;-69
2022/04/30 06:23:27;;;;;;;;;22.00;21.75;;;;;17.87;60.07;101179.69;146609;573;46010;-74
2022/04/30 06:26:19;;;;;;;;;17.00;16.25;;;;;18.65;59.66;101318.41;146607;625;46012;-68
2022/04/30 06:29:11;;;;;;;;;19.50;17.75;;;;;18.58;60.26;101319.97;146608;572;46020;-68
2022/04/30 06:32:04;;;;;;;;;23.00;18.50;;;;;18.53;60.82;101320.69;146606;635;46033;-69
2022/04/30 06:34:56;;;;;;;;;22.25;19.75;;;;;18.51;61.02;101317.16;146609;579;46012;-70
2022/04/30 06:37:48;;;;;;;;;21.50;21.00;;;;;18.54;60.49;101314.59;146607;571;46012;-69
2022/04/30 06:40:41;;;;;;;;;20.50;19.25;;;;;18.58;60.44;101317.34;146609;659;46011;-68
2022/04/30 06:43:32;;;;;;;;;22.00;20.25;;;;;18.64;60.53;101314.00;146606;606;46012;-69
2022/04/30 06:46:25;;;;;;;;;21.50;21.50;;;;;18.69;60.24;101317.63;146607;587;46020;-70
2022/04/30 06:49:17;;;;;;;;;25.25;21.50;;;;;18.74;60.65;101320.44;146605;619;46012;-69
2022/04/30 06:52:10;;;;;;;;;28.25;26.50;;;;;17.85;60.76;101158.69;146609;619;46010;-70
2022/04/30 06:58:13;;;;;;;;;32.50;28.75;;;;;18.94;60.80;101316.62;146608;575;46020;-69
2022/04/30 07:04:07;;;;;;;;;30.75;26.25;;;;;19.20;59.37;101312.03;146610;618;46021;-68
2022/04/30 07:06:59;;;;;;;;;30.75;26.25;;;;;19.27;59.68;101318.31;146604;569;46016;-69
2022/04/30 07:09:52;;;;;;;;;26.25;25.00;;;;;19.29;59.89;101319.25;146609;601;46011;-68
2022/04/30 07:12:44;;;;;;;;;26.25;23.00;;;;;19.32;58.75;101320.22;146606;591;45017;-68
2022/04/30 07:15:36;;;;;;;;;26.50;25.25;;;;;19.38;59.67;101322.13;146607;586;47010;-67
2022/04/30 07:18:29;;;;;;;;;23.50;22.75;;;;;19.46;58.88;101323.19;146603;621;47014;-68
2022/04/30 07:21:23;;;;;;;;;22.75;22.50;;;;;19.43;59.11;101317.84;146605;580;47010;-68
2022/04/30 07:24:15;;;;;;;;;30.25;24.25;;;;;18.43;58.71;101170.75;146607;592;46012;-68
2022/04/30 07:27:09;;;;;;;;;24.75;24.00;;;;;19.28;59.66;101310.50;146610;588;46010;-68
2022/04/30 07:30:03;;;;;;;;;23.25;20.50;;;;;19.23;59.84;101314.72;146603;565;46016;-69
2022/04/30 07:32:55;;;;;;;;;24.50;22.75;;;;;19.19;60.10;101320.78;146608;576;45025;-67
2022/04/30 07:35:47;;;;;;;;;23.00;20.50;;;;;19.13;60.53;101328.50;146607;565;46012;-67
2022/04/30 07:38:40;;;;;;;;;21.75;20.50;;;;;19.13;60.14;101331.13;146607;621;46010;-67
2022/04/30 07:41:32;;;;;;;;;17.00;16.00;;;;;19.19;60.06;101331.28;146606;603;46016;-69
2022/04/30 07:44:29;;;;;;;;;18.00;15.75;;;;;18.46;59.82;101189.22;146608;587;46012;-68
2022/04/30 07:47:22;;;;;;;;;16.00;13.50;;;;;19.41;59.62;101337.97;146606;605;46014;-69
2022/04/30 07:50:16;;;;;;;;;17.50;14.25;;;;;19.50;59.38;101337.28;146606;644;46010;-68
2022/04/30 07:53:09;;;;;;;;;17.25;16.50;;;;;19.57;59.90;101342.75;146610;606;46012;-69
2022/04/30 07:56:01;;;;;;;;;12.00;12.00;;;;;19.65;59.66;101337.69;146608;580;46021;-68
2022/04/30 07:58:53;;;;;;;;;13.50;13.50;;;;;19.68;58.89;101345.66;146605;607;46016;-69
2022/04/30 08:01:45;;;;;;;;;16.00;12.00;;;;;19.73;58.33;101341.41;146606;583;46010;-69
2022/04/30 08:04:38;;;;;;;;;16.50;16.50;;;;;18.79;60.21;101172.59;146608;573;45917;-68
2022/04/30 08:07:31;;;;;;;;;12.50;12.50;;;;;19.68;59.88;101342.16;146609;565;46020;-69
2022/04/30 08:10:23;;;;;;;;;14.75;14.75;;;;;19.63;58.59;101339.41;146605;602;46013;-71
2022/04/30 08:13:15;;;;;;;;;13.75;11.50;;;;;19.58;60.12;101346.28;146607;563;47020;-70
2022/04/30 08:16:09;;;;;;;;;14.50;13.00;;;;;19.62;60.85;101348.13;146606;616;46917;-71
2022/04/30 08:19:02;;;;;;;;;11.00;11.00;;;;;19.64;61.16;101349.09;146610;638;47010;-71
2022/04/30 08:21:53;;;;;;;;;15.75;13.00;;;;;19.61;61.56;101351.59;146610;576;46012;-69
2022/04/30 08:24:46;;;;;;;;;13.00;11.75;;;;;19.59;60.99;101348.97;146610;613;45021;-70
2022/04/30 08:27:38;;;;;;;;;13.00;11.75;;;;;19.57;61.06;101350.66;146611;578;46012;-70
2022/04/30 08:30:31;;;;;;;;;7.75;7.75;;;;;19.60;59.88;101347.22;146610;658;46010;-72
2022/04/30 08:33:23;;;;;;;;;11.00;11.00;;;;;19.61;60.03;101354.25;146605;569;47012;-70
2022/04/30 08:36:17;;;;;;;;;9.00;9.00;;;;;19.59;59.96;101348.03;146609;673;46010;-70
2022/04/30 08:39:09;;;;;;;;;12.50;12.50;;;;;19.60;59.51;101355.09;146604;577;46917;-70
2022/04/30 08:42:03;;;;;;;;;12.50;12.00;;;;;19.61;59.67;101348.97;146607;618;46020;-70
2022/04/30 08:44:56;;;;;;;;;13.00;12.00;;;;;19.66;59.33;101347.41;146602;570;47014;-70
2022/04/30 08:47:48;;;;;;;;;12.00;10.25;;;;;19.71;59.85;101342.22;146607;565;46011;-71
2022/04/30 08:50:41;;;;;;;;;12.25;10.50;;;;;19.75;59.54;101338.81;146609;599;46916;-70
2022/04/30 08:53:34;;;;;;;;;11.00;10.00;;;;;19.80;59.28;101337.19;146609;689;46020;-69
2022/04/30 08:56:25;;;;;;;;;11.25;11.25;;;;;19.82;58.89;101335.50;146607;564;47012;-69
2022/04/30 08:59:18;;;;;;;;;13.25;12.25;;;;;19.87;59.70;101330.31;146608;563;46010;-69
2022/04/30 09:02:14;;;;;;;;;13.75;12.00;;;;;19.91;58.83;101338.34;146609;605;46012;-69
2022/04/30 09:05:07;;;;;;;;;13.25;13.00;;;;;19.92;58.25;101334.84;146608;565;47012;-69
2022/04/30 09:08:01;;;;;;;;;18.00;16.25;;;;;19.87;58.98;101332.94;146609;674;45017;-68
2022/04/30 09:10:54;;;;;;;;;13.00;12.50;;;;;19.79;59.11;101330.16;146608;619;46010;-67
2022/04/30 09:13:50;;;;;;;;;16.75;14.25;;;;;19.74;59.51;101330.03;146603;597;47014;-68
2022/04/30 09:16:42;;;;;;;;;10.75;9.75;;;;;19.69;60.06;101328.13;146607;616;46011;-68
2022/04/30 09:19:35;;;;;;;;;15.25;15.25;;;;;19.59;58.80;101325.28;146608;592;46016;-69
2022/04/30 09:22:41;;;;;;;;;14.25;12.75;;;;;19.52;58.95;101320.69;146610;618;46010;-69
2022/04/30 09:25:33;;;;;;;;;10.75;9.00;;;;;19.51;59.36;101320.69;146599;590;47014;-68
2022/04/30 09:28:33;;;;;;;;;13.25;11.25;;;;;19.53;59.49;101321.59;146606;565;47010;-69
2022/04/30 09:31:26;;;;;;;;;14.25;12.75;;;;;19.59;60.30;101317.38;146605;635;46017;-69
2022/04/30 09:37:42;;;;;;;;;13.25;12.00;;;;;19.82;59.54;101327.59;146602;630;48012;-70
2022/04/30 09:40:35;;;;;;;;;16.75;12.75;;;;;19.95;58.54;101310.34;146600;584;46021;-70
2022/04/30 09:43:34;;;;;;;;;16.00;15.00;;;;;20.06;57.71;101312.34;146606;578;46012;-71
2022/04/30 09:46:27;;;;;;;;;14.25;13.25;;;;;20.21;57.87;101311.75;146599;590;47021;-69
2022/04/30 09:55:40;;;;;;;;;13.25;13.00;;;;;20.66;54.87;101313.59;146604;566;46033;-70
2022/04/30 09:58:33;;;;;;;;;16.50;14.75;;;;;20.80;55.54;101308.59;146602;684;47020;-70
2022/04/30 10:01:25;;;;;;;;;14.75;13.50;;;;;20.93;53.85;101317.59;146598;594;47013;-70
2022/04/30 10:04:19;;;;;;;;;12.75;12.75;;;;;20.97;53.79;101312.44;146605;656;47010;-69
2022/04/30 10:07:16;;;;;;;;;15.25;13.75;;;;;20.97;51.37;101311.56;146602;608;47016;-69
2022/04/30 10:10:39;;;;;;;;;17.25;13.50;;;;;19.99;53.62;101167.41;146607;576;46010;-68
2022/04/30 10:13:58;;;;;;;;;18.75;16.50;;;;;20.82;54.00;101306.00;146604;619;46016;-71
2022/04/30 10:20:21;;;;;;;;;15.25;13.00;;;;;20.64;51.85;101306.53;146608;615;46018;-69
2022/04/30 10:23:21;;;;;;;;;15.50;15.50;;;;;20.50;52.40;101311.50;146611;639;45034;-69
2022/04/30 10:26:12;;;;;;;;;22.50;19.75;;;;;20.33;52.80;101310.25;146609;596;46016;-70
2022/04/30 10:29:17;;;;;;;;;16.75;16.50;;;;;20.18;54.98;101298.53;146608;579;46010;-68
2022/04/30 10:32:09;;;;;;;;;18.75;17.00;;;;;20.15;54.38;101300.22;146606;577;47012;-70
2022/04/30 10:35:02;;;;;;;;;18.75;17.50;;;;;20.18;55.10;101298.53;146604;574;47010;-69
2022/04/30 10:37:54;;;;;;;;;16.75;16.25;;;;;20.24;55.17;101298.66;146607;570;46017;-70
2022/04/30 10:41:00;;;;;;;;;18.00;15.75;;;;;20.28;54.85;101300.53;146607;577;46020;-69
2022/04/30 10:44:03;;;;;;;;;19.25;16.50;;;;;20.35;54.36;101298.91;146606;594;46917;-69
2022/04/30 10:46:56;;;;;;;;;18.00;18.00;;;;;20.39;53.84;101306.00;146606;592;46010;-70
2022/04/30 10:49:49;;;;;;;;;17.25;14.00;;;;;20.44;54.51;101301.72;146605;611;46032;-70
2022/04/30 10:52:45;;;;;;;;;15.75;15.75;;;;;20.46;53.87;101305.25;146604;585;46021;-70
2022/04/30 10:55:38;;;;;;;;;17.00;15.00;;;;;20.50;53.37;101298.34;146608;607;46012;-69
2022/04/30 10:58:31;;;;;;;;;16.00;15.25;;;;;20.59;54.23;101298.56;146607;616;46010;-69
2022/04/30 11:01:24;;;;;;;;;17.50;16.00;;;;;20.80;53.76;101292.78;146606;615;46016;-70
2022/04/30 11:04:20;;;;;;;;;17.00;15.50;;;;;21.02;53.66;101295.78;146609;569;47010;-70
2022/04/30 11:07:13;;;;;;;;;13.75;13.00;;;;;21.19;52.64;101297.00;146606;611;46016;-69
2022/04/30 11:10:11;;;;;;;;;19.25;16.75;;;;;21.31;53.30;101299.84;146607;582;46020;-70
2022/04/30 11:13:10;;;;;;;;;19.25;14.75;;;;;21.48;52.32;101292.22;146605;605;46917;-68
2022/04/30 11:16:03;;;;;;;;;15.50;15.50;;;;;21.64;51.80;101293.34;146608;597;46026;-70
2022/04/30 11:19:04;;;;;;;;;18.25;15.75;;;;;21.72;51.58;101286.44;146603;576;47016;-69
2022/04/30 11:21:59;;;;;;;;;19.00;14.75;;;;;21.79;51.30;101287.41;146608;596;46010;-70
2022/04/30 11:24:51;;;;;;;;;15.25;13.50;;;;;21.77;51.69;101287.34;146608;563;46032;-69
2022/04/30 11:27:43;;;;;;;;;17.50;14.00;;;;;21.77;51.75;101281.19;146609;582;45020;-70
2022/04/30 11:30:39;;;;;;;;;15.50;13.50;;;;;21.75;51.59;101281.19;146606;580;46014;-71
2022/04/30 11:33:40;;;;;;;;;15.00;13.75;;;;;21.72;51.82;101282.91;146608;563;46020;-69
2022/04/30 11:36:42;;;;;;;;;15.00;14.00;;;;;21.68;51.63;101288.13;146607;613;46017;-68
2022/04/30 11:39:34;;;;;;;;;16.75;15.75;;;;;21.63;51.01;101281.88;146608;577;46031;-68
2022/04/30 11:42:29;;;;;;;;;14.00;14.00;;;;;21.59;51.94;101288.00;146607;599;46012;-69
2022/04/30 11:45:31;;;;;;;;;15.00;15.00;;;;;21.52;51.73;101283.47;146610;585;46011;-69
2022/04/30 11:48:24;;;;;;;;;17.25;17.25;;;;;21.42;52.07;101279.81;146606;584;46012;-70
2022/04/30 11:51:16;;;;;;;;;11.00;10.00;;;;;21.34;52.77;101283.16;146616;635;45020;-72
2022/04/30 11:54:12;;;;;;;;;15.50;15.25;;;;;21.28;54.21;101273.41;146608;599;46012;-71
2022/04/30 11:57:04;;;;;;;;;15.50;14.75;;;;;21.24;53.13;101268.94;146609;588;46010;-70
2022/04/30 11:59:59;;;;;;;;;16.50;14.25;;;;;21.27;53.99;101270.72;146607;585;46014;-69
2022/04/30 12:02:53;;;;;;;;;14.75;12.50;;;;;21.30;54.96;101271.66;146605;654;47010;-68
2022/04/30 12:05:48;;;;;;;;;13.75;13.25;;;;;21.33;54.66;101269.06;146604;664;46016;-69
2022/04/30 12:08:41;;;;;;;;;18.50;17.25;;;;;20.18;54.16;101068.59;146610;670;47010;-68
2022/04/30 12:11:45;;;;;;;;;15.25;15.25;;;;;21.36;54.25;101265.62;146606;646;46012;-67
2022/04/30 12:14:50;;;;;;;;;14.75;13.00;;;;;20.59;53.04;101129.94;146605;571;47012;-68
2022/04/30 12:17:42;;;;;;;;;15.75;13.25;;;;;21.46;53.06;101259.63;146605;578;47012;-69
2022/04/30 12:27:04;;;;;;;;;17.00;14.75;;;;;21.15;53.83;101106.19;146607;572;47010;-70
2022/04/30 12:30:25;;;;;;;;;22.00;20.25;;;;;21.98;52.95;101225.16;146603;614;46917;-70
2022/04/30 12:33:17;;;;;;;;;18.75;17.25;;;;;22.04;52.23;101239.31;146609;666;46020;-70
2022/04/30 12:36:09;;;;;;;;;18.50;16.50;;;;;22.00;51.12;101239.28;146605;630;46017;-69
2022/04/30 12:39:02;;;;;;;;;18.25;17.50;;;;;21.90;51.79;101225.09;146609;602;46010;-70
2022/04/30 12:41:58;;;;;;;;;16.75;15.00;;;;;21.86;52.43;101218.84;146606;606;46016;-70
2022/04/30 12:44:50;;;;;;;;;17.00;15.00;;;;;21.89;51.53;101215.38;146608;564;46011;-70
2022/04/30 12:47:42;;;;;;;;;17.75;16.25;;;;;21.87;52.12;101214.47;146607;579;46012;-70
2022/04/30 12:50:35;;;;;;;;;14.25;13.25;;;;;21.88;52.88;101213.59;146609;632;46010;-69
2022/04/30 12:53:28;;;;;;;;;11.75;10.75;;;;;21.84;52.34;101207.41;146604;647;46017;-70
2022/04/30 12:56:23;;;;;;;;;16.00;15.25;;;;;21.79;52.96;101205.56;146608;577;46020;-69
2022/04/30 12:59:16;;;;;;;;;18.25;15.00;;;;;21.74;52.39;101213.41;146606;626;47012;-69
2022/04/30 13:02:09;;;;;;;;;13.50;11.00;;;;;21.72;54.47;101204.59;146610;620;45020;-69
2022/04/30 13:05:01;;;;;;;;;16.00;15.25;;;;;21.71;54.51;101200.16;146604;625;46016;-68
2022/04/30 13:07:53;;;;;;;;;14.50;13.75;;;;;21.76;54.17;101200.25;146608;592;46010;-69
2022/04/30 13:13:55;;;;;;;;;15.50;15.50;;;;;22.04;52.87;101191.78;146605;572;46030;-69
2022/04/30 13:16:49;;;;;;;;;12.25;11.25;;;;;22.16;52.39;101193.72;146604;626;46016;-69
2022/04/30 13:19:42;;;;;;;;;15.00;14.00;;;;;22.21;51.67;101191.12;146611;673;46010;-70
2022/04/30 13:22:34;;;;;;;;;18.75;17.25;;;;;22.23;52.16;101184.12;146607;602;46012;-68
2022/04/30 13:25:31;;;;;;;;;15.50;11.50;;;;;22.32;52.39;101181.56;146609;644;46010;-68
2022/04/30 13:28:23;;;;;;;;;18.00;16.50;;;;;22.46;52.02;101172.03;146609;640;46039;-68
2022/04/30 13:31:15;;;;;;;;;17.75;15.25;;;;;22.60;52.15;101175.69;146608;582;46020;-70
2022/04/30 13:34:07;;;;;;;;;19.75;18.00;;;;;22.73;50.64;101174.03;146603;602;46016;-69
2022/04/30 13:37:01;;;;;;;;;12.25;11.25;;;;;22.84;51.08;101168.84;146608;629;46010;-68
2022/04/30 13:39:53;;;;;;;;;15.75;15.75;;;;;22.79;50.04;101170.56;146606;569;46012;-69
2022/04/30 13:42:46;;;;;;;;;18.50;15.00;;;;;22.70;51.29;101171.34;146611;599;46010;-69
2022/04/30 13:45:39;;;;;;;;;18.75;16.00;;;;;22.66;50.02;101166.91;146605;667;46035;-68
2022/04/30 13:48:33;;;;;;;;;15.25;14.00;;;;;22.67;51.88;101166.03;146607;575;46020;-70
2022/04/30 13:51:25;;;;;;;;;18.00;15.75;;;;;22.48;51.59;101165.00;146608;571;46012;-69
2022/04/30 13:54:17;;;;;;;;;15.00;14.00;;;;;22.40;53.56;101160.50;146607;730;46010;-70
2022/04/30 13:57:10;;;;;;;;;17.25;16.00;;;;;22.37;53.50;101164.03;146605;566;46013;-68
2022/04/30 14:00:02;;;;;;;;;15.25;13.25;;;;;22.34;53.76;101159.59;146609;579;46010;-71
2022/04/30 14:02:54;;;;;;;;;15.00;13.50;;;;;22.32;53.45;101155.16;146604;702;47012;-70